Latest Weather Observations for Proserpine

IDQ60801

Issued at 10:05 am EST Tuesday 23 September 2014 (issued every 30 minutes, with the page automatically refreshed every 10 minutes)

About weather observations | Map of weather stations | Latest weather observations for QLD | Other Formats
Station Details ID: 033247 Name: PROSERPINE AIRPORT Lat: -20.49 Lon: 148.56 Height: 19.7 m
Data from the previous 72 hours. | See also: Recent months at Proserpine
Date/Time
EST
Temp
°C
App
Temp
°C
Dew
Point
Rel
Hum
%
Delta-T
°C
Wind Press
QNH
hPa
Press
MSL
hPa
Rain
since 9 am
mm
Dir
 
Spd
km/h
Gust
km/h
Spd
kts
Gust
kts
23/10:00am 21.7 19.8 18.5 82 2.0 ESE 26 37 14 20 1021.4 - 0.0
23/09:31am 23.8 22.0 18.7 73 3.2 SE 26 39 14 21 1021.1 - 0.0
23/09:30am 23.5 21.3 17.9 71 3.5 SE 26 39 14 21 1021.1 - 0.0
23/09:00am 22.5 21.7 19.3 82 2.0 S 22 32 12 17 1021.3 1021.1 32.6
23/08:49am 22.0 21.6 18.8 82 2.0 S 19 26 10 14 1021.2 - 32.6
23/08:30am 21.2 20.1 18.6 85 1.6 SSE 22 33 12 18 1021.1 - 32.6
23/08:00am 20.7 20.0 18.6 88 1.3 SSE 20 30 11 16 1020.8 - 32.6
23/07:30am 19.9 18.5 18.0 89 1.2 SSE 22 30 12 16 1020.5 - 32.6
23/07:00am 19.0 17.8 17.5 91 0.9 S 20 24 11 13 1019.9 - 32.6
23/06:30am 18.5 17.5 17.5 94 0.6 S 19 26 10 14 1019.6 - 32.6
23/06:00am 18.1 17.3 17.1 94 0.6 SSE 17 24 9 13 1019.4 1019.3 32.6
23/05:30am 18.2 16.9 16.9 92 0.8 S 19 28 10 15 1019.1 - 32.6
23/05:00am 18.3 16.8 16.8 91 0.9 SSE 20 24 11 13 1018.9 - 32.6
23/04:30am 18.2 17.5 16.5 90 1.0 SSE 15 20 8 11 1018.7 - 32.6
23/04:00am 18.3 17.3 16.5 89 1.1 SSE 17 22 9 12 1018.5 - 32.6
23/03:30am 18.5 17.1 16.5 88 1.2 SSE 19 24 10 13 1018.4 - 32.6
23/03:00am 18.2 17.1 16.4 89 1.1 SSE 17 24 9 13 1018.3 1018.2 32.6
23/02:30am 18.2 17.9 16.4 89 1.1 SSE 13 19 7 10 1018.5 - 32.6
23/02:00am 18.0 17.6 16.3 90 1.0 S 13 19 7 10 1018.8 - 32.6
23/01:30am 17.9 17.5 16.2 90 1.0 SSE 13 17 7 9 1019.1 - 32.6
23/01:00am 17.9 17.5 16.1 89 1.1 S 13 19 7 10 1019.3 - 32.2
23/12:30am 18.0 17.6 16.2 89 1.1 SSE 13 20 7 11 1019.7 - 32.2
23/12:00am 18.0 17.2 16.2 89 1.1 SSE 15 20 8 11 1019.8 1019.8 32.2
 
Date/Time
EST
Temp
°C
App
Temp
°C
Dew
Point
Rel
Hum
%
Delta-T
°C
Wind Press
QNH
hPa
Press
MSL
hPa
Rain
since 9 am
mm
Dir
 
Spd
km/h
Gust
km/h
Spd
kts
Gust
kts
22/11:30pm 17.9 17.8 16.1 89 1.1 SSE 11 19 6 10 1020.2 - 32.2
22/11:00pm 17.8 17.3 15.8 88 1.2 SSE 13 19 7 10 1020.5 - 32.2
22/10:30pm 17.8 16.8 15.6 87 1.3 SSE 15 20 8 11 1020.6 - 32.2
22/10:00pm 17.7 16.3 15.5 87 1.3 S 17 26 9 14 1020.6 - 32.2
22/09:30pm 17.7 17.6 16.0 90 1.0 SSE 11 19 6 10 1020.6 - 32.2
22/09:00pm 17.4 17.3 15.9 91 0.9 SSE 11 15 6 8 1020.7 1020.4 32.2
22/08:30pm 17.5 17.4 16.0 91 0.9 SSE 11 17 6 9 1020.5 - 32.2
22/08:00pm 17.7 17.2 16.0 90 1.0 SSE 13 17 7 9 1020.4 - 32.2
22/07:30pm 17.9 17.1 16.1 89 1.1 SSE 15 19 8 10 1020.0 - 32.2
22/07:00pm 18.3 17.4 16.8 91 0.9 SSE 17 22 9 12 1019.7 - 32.2
22/06:40pm 18.5 17.4 17.2 92 0.8 S 19 24 10 13 1019.6 - 32.2
22/06:30pm 18.5 17.7 17.2 92 0.8 S 17 22 9 12 1019.4 - 32.2
22/06:27pm 18.6 18.3 17.4 93 0.7 S 15 20 8 11 1019.4 - 32.2
22/06:00pm 19.0 19.7 18.0 94 0.6 S 11 17 6 9 1018.9 1018.7 32.2
22/05:30pm 19.3 20.6 18.5 95 0.5 S 9 13 5 7 1018.6 - 32.2
22/05:00pm 19.1 18.2 18.3 95 0.5 ESE 20 28 11 15 1017.4 - 32.2
22/04:39pm 19.1 18.9 18.4 96 0.4 SSE 17 22 9 12 1018.0 - 32.0
22/04:37pm 19.0 18.7 18.3 96 0.4 SSE 17 22 9 12 1018.1 - 32.0
22/04:30pm 19.0 19.6 18.5 97 0.3 S 13 19 7 10 1018.2 - 32.0
22/04:08pm 19.0 19.6 18.5 97 0.3 WSW 13 17 7 9 1018.4 - 29.6
22/04:03pm 19.1 19.7 18.6 97 0.3 W 13 19 7 10 1018.4 - 27.4
22/04:00pm 19.0 19.2 18.5 97 0.3 W 15 20 8 11 1018.3 - 27.0
22/03:30pm 19.1 18.5 18.4 96 0.4 WSW 19 24 10 13 1018.0 - 21.6
22/03:00pm 19.7 20.6 19.2 97 0.3 SW 13 19 7 10 1017.7 1017.7 18.0
22/02:30pm 19.9 20.3 18.9 94 0.6 S 15 24 8 13 1017.3 - 9.4
22/02:26pm 20.0 20.3 18.7 92 0.8 S 15 19 8 10 1017.5 - 7.8
22/02:18pm 20.4 20.4 18.9 91 0.9 SSE 17 24 9 13 1017.5 - 3.0
22/02:07pm 20.8 20.1 18.7 88 1.3 SE 20 30 11 16 1017.2 - 2.4
22/02:00pm 21.3 20.0 19.0 87 1.5 SE 24 32 13 17 1017.2 - 1.0
22/01:30pm 22.4 21.1 17.3 73 3.1 SE 20 30 11 16 1017.3 - 0.0
22/01:00pm 22.8 20.1 15.6 64 4.3 ESE 24 33 13 18 1017.5 - 0.0
22/12:30pm 24.4 22.0 17.4 65 4.4 ESE 26 35 14 19 1017.9 - 0.0
22/12:00pm 25.2 22.4 14.3 50 6.5 E 22 32 12 17 1018.2 1018.2 0.0
22/11:30am 24.8 21.5 14.0 51 6.4 E 24 33 13 18 1018.7 - 0.0
22/11:00am 25.7 22.6 14.5 50 6.7 E 24 37 13 20 1019.0 - 0.0
22/10:30am 26.9 25.1 15.9 51 6.7 E 20 30 11 16 1019.2 - 0.0
22/10:00am 25.6 23.9 16.2 56 5.8 ESE 20 35 11 19 1019.5 - 0.0
22/09:30am 24.2 21.6 15.9 59 5.0 ESE 24 32 13 17 1019.5 - 0.0
22/09:00am 23.3 22.5 17.1 68 3.8 ENE 17 26 9 14 1019.5 1019.4 1.0
22/08:30am 21.0 21.5 18.4 85 1.6 S 13 17 7 9 1019.5 - 1.0
22/08:00am 19.6 19.2 17.2 86 1.5 S 15 19 8 10 1019.7 - 1.0
22/07:30am 19.2 18.9 17.3 89 1.2 SSE 15 20 8 11 1019.2 - 1.0
22/07:00am 19.0 18.8 17.5 91 0.9 SSE 15 20 8 11 1019.1 - 1.0
22/06:30am 19.1 18.5 17.6 91 0.9 SE 17 20 9 11 1018.8 - 1.0
22/06:00am 19.7 20.4 18.0 90 1.0 SE 11 19 6 10 1018.4 1018.3 0.8
22/05:30am 19.6 21.1 18.1 91 0.9 E 7 11 4 6 1018.0 - 0.8
22/05:00am 19.7 20.5 18.2 91 0.9 E 11 13 6 7 1017.7 - 0.6
22/04:30am 19.4 19.9 17.5 89 1.2 E 11 15 6 8 1017.3 - 0.6
22/04:00am 19.5 19.4 16.9 85 1.6 E 13 19 7 10 1017.4 - 0.6
22/03:30am 20.9 21.6 17.1 79 2.3 E 9 15 5 8 1017.5 - 0.4
22/03:00am 20.8 20.6 16.8 78 2.4 E 13 19 7 10 1017.7 1017.5 0.4
22/02:30am 20.7 21.0 17.1 80 2.2 E 11 15 6 8 1017.9 - 0.4
22/02:00am 20.7 21.1 17.3 81 2.1 E 11 19 6 10 1017.9 - 0.4
22/01:30am 20.3 20.0 16.5 79 2.3 E 13 17 7 9 1018.2 - 0.4
22/01:00am 20.4 19.9 17.0 81 2.1 E 15 22 8 12 1018.5 - 0.4
22/12:30am 20.4 20.4 17.2 82 2.0 E 13 17 7 9 1018.9 - 0.4
22/12:00am 20.4 19.9 17.0 81 2.1 E 15 22 8 12 1019.0 1018.8 0.4
 
Date/Time
EST
Temp
°C
App
Temp
°C
Dew
Point
Rel
Hum
%
Delta-T
°C
Wind Press
QNH
hPa
Press
MSL
hPa
Rain
since 9 am
mm
Dir
 
Spd
km/h
Gust
km/h
Spd
kts
Gust
kts
21/11:30pm 20.1 20.4 17.9 87 1.4 ESE 13 19 7 10 1019.5 - 0.4
21/11:00pm 19.6 21.1 18.1 91 0.9 ESE 7 9 4 5 1020.0 - 0.4
21/10:30pm 19.6 19.9 17.9 90 1.0 ESE 13 19 7 10 1020.0 - 0.4
21/10:00pm 20.1 19.3 17.1 83 1.8 E 17 24 9 13 1020.2 - 0.4
21/09:30pm 21.6 20.4 16.1 71 3.3 ESE 17 24 9 13 1020.2 - 0.0
21/09:00pm 21.9 21.3 16.6 72 3.2 ESE 15 22 8 12 1020.2 1020.1 0.0
21/08:30pm 21.8 21.1 16.3 71 3.3 E 15 20 8 11 1019.9 - 0.0
21/08:00pm 21.5 20.3 16.2 72 3.2 E 17 20 9 11 1019.8 - 0.0
21/07:30pm 21.2 20.4 16.0 72 3.1 ESE 15 22 8 12 1019.2 - 0.0
21/07:00pm 21.9 20.9 16.6 72 3.2 E 17 28 9 15 1019.1 - 0.0
21/06:30pm 21.6 21.0 16.6 73 3.0 ESE 15 22 8 12 1018.8 - 0.0
21/06:00pm 21.9 20.5 16.6 72 3.2 E 19 30 10 16 1018.4 1018.4 0.0
21/05:30pm 22.5 20.6 16.8 70 3.5 E 22 32 12 17 1018.3 - 0.0
21/05:00pm 22.9 20.5 16.4 67 4.0 E 24 37 13 20 1018.1 - 0.0
21/04:30pm 23.6 21.0 16.9 66 4.1 ESE 26 41 14 22 1018.0 - 0.0
21/04:00pm 23.7 21.0 15.7 61 4.8 E 24 32 13 17 1018.2 - 0.0
21/03:30pm 24.0 21.6 16.3 62 4.7 E 24 33 13 18 1018.4 - 0.0
21/03:00pm 24.8 21.9 15.1 54 5.8 ESE 24 35 13 19 1018.4 1018.3 0.0
21/02:30pm 25.0 22.5 17.2 62 4.8 ESE 26 33 14 18 1018.5 - 0.0
21/02:00pm 23.3 22.5 19.2 78 2.6 SE 22 30 12 16 1018.9 - 0.0
21/01:30pm 25.6 24.0 18.3 64 4.6 ESE 24 35 13 19 1018.6 - 0.0
21/01:00pm 25.1 22.3 16.3 58 5.4 ESE 26 43 14 23 1018.8 - 0.0
21/12:30pm 25.0 22.1 16.2 58 5.4 E 26 46 14 25 1018.9 - 0.0
21/12:00pm 26.0 23.3 15.7 53 6.3 E 24 39 13 21 1019.1 1019.0 0.0
21/11:30am 25.1 22.2 16.0 57 5.6 E 26 39 14 21 1019.4 - 0.0
21/11:00am 26.9 24.2 16.5 53 6.4 E 26 39 14 21 1019.4 - 0.0
21/10:30am 25.1 21.2 15.4 55 5.9 E 30 39 16 21 1019.9 - 0.0
21/10:00am 25.5 22.8 15.5 54 6.1 ESE 24 33 13 18 1020.4 - 0.0
21/09:30am 24.6 21.7 16.1 59 5.2 ESE 26 33 14 18 1020.4 - 0.0
21/09:00am 24.2 20.2 16.2 61 4.9 SE 32 39 17 21 1020.4 1020.1 0.0
21/08:30am 24.5 22.0 17.2 63 4.5 E 26 35 14 19 1020.0 - 0.0
21/08:00am 22.5 24.0 19.7 84 1.8 S 11 24 6 13 1019.7 - 0.0
21/07:30am 19.7 22.2 18.2 91 0.9 SSW 2 6 1 3 1019.7 - 0.0
21/07:00am 18.1 20.5 17.1 94 0.6 CALM 0 0 0 0 1019.3 - 0.0
21/06:30am 17.3 19.5 16.5 95 0.5 CALM 0 2 0 1 1018.8 - 0.0
21/06:00am 17.2 18.1 16.2 94 0.6 SSW 6 7 3 4 1018.5 1018.4 0.0
21/05:30am 17.3 19.4 16.3 94 0.6 CALM 0 2 0 1 1018.2 - 0.0
21/05:00am 17.1 18.3 15.8 92 0.8 SSW 4 9 2 5 1017.8 - 0.0
21/04:30am 17.5 18.5 16.4 93 0.7 SSW 6 9 3 5 1017.4 - 0.0
21/04:00am 17.3 17.8 16.5 95 0.5 SSW 9 11 5 6 1017.1 - 0.0
21/03:30am 17.4 18.2 16.3 93 0.7 SSW 7 9 4 5 1017.1 - 0.0
21/03:00am 17.2 17.9 16.2 94 0.6 SSW 7 9 4 5 1017.3 1017.2 0.0
21/02:30am 17.2 17.5 16.1 93 0.7 SSW 9 11 5 6 1017.5 - 0.0
21/02:00am 17.5 18.0 16.5 94 0.6 SSW 9 11 5 6 1018.0 - 0.0
21/01:30am 17.1 17.7 15.8 92 0.8 SSW 7 9 4 5 1018.3 - 0.0
21/01:00am 17.4 17.7 16.1 92 0.8 SSW 9 11 5 6 1018.5 - 0.0
21/12:30am 17.8 18.2 16.3 91 0.9 SSW 9 11 5 6 1018.9 - 0.0
21/12:00am 17.8 18.7 16.5 92 0.8 SSW 7 9 4 5 1019.1 1019.1 0.0
 
Date/Time
EST
Temp
°C
App
Temp
°C
Dew
Point
Rel
Hum
%
Delta-T
°C
Wind Press
QNH
hPa
Press
MSL
hPa
Rain
since 9 am
mm
Dir
 
Spd
km/h
Gust
km/h
Spd
kts
Gust
kts
20/11:30pm 17.3 18.9 14.8 85 1.4 CALM 0 0 0 0 1019.2 - 0.0
20/11:00pm 19.1 20.2 16.5 85 1.6 SSE 6 7 3 4 1019.3 - 0.0
20/10:30pm 19.7 21.0 17.1 85 1.6 ESE 6 7 3 4 1019.3 - 0.0
20/10:00pm 19.8 21.1 17.0 84 1.7 ESE 6 6 3 3 1019.3 - 0.0
20/09:30pm 20.2 20.9 17.0 82 1.9 ESE 9 11 5 6 1019.4 - 0.0
20/09:00pm 20.6 21.4 17.4 82 2.0 ESE 9 13 5 7 1019.2 1019.0 0.0
20/08:30pm 20.6 21.9 17.6 83 1.8 ESE 7 9 4 5 1018.9 - 0.0
20/08:00pm 20.8 22.2 17.4 81 2.1 ESE 6 7 3 4 1018.7 - 0.0
20/07:30pm 20.6 21.3 17.0 80 2.2 ESE 9 13 5 7 1018.1 - 0.0
20/07:00pm 21.2 21.6 17.2 78 2.5 E 11 15 6 8 1017.7 - 0.0
20/06:30pm 22.0 22.3 17.8 77 2.6 E 13 19 7 10 1017.0 - 0.0
20/06:00pm 22.5 21.4 17.2 72 3.3 E 19 26 10 14 1016.4 1016.2 0.0
20/05:30pm 23.2 22.0 17.0 68 3.8 ESE 19 28 10 15 1015.8 - 0.0
20/05:00pm 24.2 22.4 17.0 64 4.4 E 22 30 12 16 1015.1 - 0.0
20/04:30pm 25.4 24.0 17.1 60 5.2 ESE 20 32 11 17 1014.4 - 0.0
20/04:00pm 26.1 24.1 16.4 55 6.0 ESE 22 33 12 18 1013.9 - 0.0
20/03:30pm 28.5 24.8 11.6 35 9.7 ENE 22 28 12 15 1013.7 - 0.0
20/03:00pm 28.3 24.6 10.0 32 10.3 NNE 20 32 11 17 1013.5 1013.4 0.0
20/02:30pm 29.0 25.4 12.0 35 9.9 NNE 22 33 12 18 1013.6 - 0.0
20/02:00pm 29.7 25.2 8.7 27 11.6 N 22 30 12 16 1013.7 - 0.0
20/01:30pm 28.4 24.6 13.5 40 8.9 E 26 32 14 17 1014.0 - 0.0
20/01:00pm 29.6 28.3 12.5 35 10.0 E 11 22 6 12 1014.8 - 0.0
20/12:30pm 30.6 28.5 11.1 30 11.3 NE 13 20 7 11 1015.4 - 0.0
20/12:00pm 29.5 27.0 9.6 29 11.1 NNE 13 17 7 9 1016.0 1015.8 0.0
20/11:30am 29.0 27.9 13.2 37 9.4 NNW 11 19 6 10 1016.6 - 0.0
20/11:00am 28.6 28.4 14.8 43 8.4 N 9 19 5 10 1017.1 - 0.0
20/10:30am 27.2 26.3 14.9 47 7.4 N 13 22 7 12 1017.9 - 0.0

Other Formats:

Comma delimited format used in spreadsheet applications
http://www.bom.gov.au/fwo/IDQ60801/IDQ60801.94365.axf

JavaScript Object Notation format (JSON) in row-major order
http://www.bom.gov.au/fwo/IDQ60801/IDQ60801.94365.json